Terminal Aerodrome Forecast
Issued by NWS

Home | Current Version | Previous Version | Text Only | Print | Product List | Glossary On
Versions: 1 2 3 4 5 6 7 8 9 10 11 12 13 14 15 16 17 18
000
FTUS42 TJSJ 272324
TAFJBQ
TAF
TJBQ 272324Z 2800/2824 10008KT P6SM SCT025 SCT060
     FM281400 12013KT P6SM FEW025
     FM282300 09008KT P6SM FEW025 SCT060=

USA.gov is the U.S. government's official web portal to all federal, state and local government web resources and services.